Terminal Aerodrome Forecast
Issued by NWS

Home | Current Version | Previous Version | Text Only | Print | Product List | Glossary On
Versions: 1 2 3 4 5 6 7 8 9 10 11 12 13 14 15 16 17 18
000
FTUS46 KMTR 261124
TAFSJC
TAF
KSJC 261124Z 2612/2712 VRB03KT P6SM FEW030 BKN250
     FM261800 19008KT P6SM SCT040 BKN200
     FM270300 16005KT P6SM -RA OVC030
     FM270900 23006KT P6SM OVC030
      TEMPO 2709/2712 6SM -RA OVC025=

USA.gov is the U.S. government's official web portal to all federal, state and local government web resources and services.